Time;durP1;ratioP1;P1;durP2;ratioP2;P2;SDS_P1;SDS_P2;PMS_P1;PMS_P2;Temp;Humidity;BMP_temperature;BMP_pressure;BME280_temperature;BME280_humidity;BME280_pressure;Samples;Min_cycle;Max_cycle;Signal;HPM_P1;HPM_P2
2023/06/22 00:00:12;;;;;;;16.17;12.23;;;;;;;-144.30;66.18;84275.41;5111935;28;20190;-63
2023/06/22 00:02:38;;;;;;;15.68;12.05;;;;;;;-144.30;66.41;84287.34;5111393;28;20210;-57
2023/06/22 00:05:06;;;;;;;14.55;12.57;;;;;;;-144.30;66.63;84247.59;5112031;28;20295;-57
2023/06/22 00:07:34;;;;;;;14.57;11.80;;;;;;;-144.30;66.92;84259.50;5111849;28;20198;-57
2023/06/22 00:10:01;;;;;;;17.65;13.02;;;;;;;-144.30;66.94;84251.56;5111604;28;20277;-63
2023/06/22 00:12:28;;;;;;;13.35;12.10;;;;;;;-144.30;66.97;84265.47;5112131;28;20191;-63
2023/06/22 00:14:55;;;;;;;12.82;11.73;;;;;;;-144.30;66.94;84257.53;5111537;28;20209;-63
2023/06/22 00:17:22;;;;;;;16.02;13.27;;;;;;;-144.30;67.21;84255.53;5111661;28;20193;-57
2023/06/22 00:19:53;;;;;;;13.82;12.60;;;;;;;-144.30;67.46;84261.50;5111345;28;20213;-57
2023/06/22 00:22:28;;;;;;;19.23;12.98;;;;;;;-144.30;67.75;84259.50;5111428;28;20674;-58
2023/06/22 00:24:57;;;;;;;13.85;12.57;;;;;;;-144.30;67.90;84247.59;5111215;28;20213;-64
2023/06/22 00:27:24;;;;;;;13.88;12.73;;;;;;;-144.30;67.71;84283.38;5109000;28;20221;-63
2023/06/22 00:29:51;;;;;;;16.15;13.63;;;;;;;-144.30;67.46;84301.25;5111538;28;20191;-63
2023/06/22 00:32:18;;;;;;;13.35;12.35;;;;;;;-144.30;67.57;84251.56;5111222;28;20205;-63
2023/06/22 00:34:45;;;;;;;14.13;12.90;;;;;;;-144.30;67.12;84311.19;5110947;28;20254;-63
2023/06/22 00:37:13;;;;;;;14.43;13.05;;;;;;;-144.30;66.86;84299.25;5111138;28;20702;-64
2023/06/22 00:39:40;;;;;;;14.75;13.35;;;;;;;-144.30;67.58;84323.13;5111254;28;20595;-62
2023/06/22 00:42:08;;;;;;;14.50;13.13;;;;;;;-144.30;68.21;84285.34;5110991;28;20218;-56
2023/06/22 00:44:36;;;;;;;13.45;12.35;;;;;;;-144.30;68.30;84303.25;5111177;28;20636;-56
2023/06/22 00:47:03;;;;;;;13.95;12.75;;;;;;;-144.30;68.45;84279.38;5108739;28;20190;-56
2023/06/22 00:49:31;;;;;;;14.70;13.30;;;;;;;-144.30;68.22;84335.03;5111195;28;20198;-56
2023/06/22 00:51:58;;;;;;;14.90;13.35;;;;;;;-144.30;67.92;84323.13;5110763;28;20214;-57
2023/06/22 00:54:26;;;;;;;14.25;13.02;;;;;;;-144.30;68.67;84315.16;5111010;28;20206;-58
2023/06/22 00:56:56;;;;;;;14.63;13.32;;;;;;;-144.30;69.48;84348.94;5110325;28;20195;-57
2023/06/22 00:59:26;;;;;;;15.98;13.85;;;;;;;-144.30;69.87;84360.88;5110912;28;20194;-63
2023/06/22 01:01:53;;;;;;;14.85;13.50;;;;;;;-144.30;70.39;84342.97;5110579;28;20219;-56
2023/06/22 01:04:20;;;;;;;18.27;14.73;;;;;;;-144.30;70.82;84362.84;5110517;28;20306;-57
2023/06/22 01:06:55;;;;;;;15.73;14.10;;;;;;;-144.30;71.05;84376.78;5110407;28;20201;-57
2023/06/22 01:09:31;;;;;;;17.73;14.73;;;;;;;-144.30;71.71;84446.31;5110623;28;20261;-63
2023/06/22 01:12:02;;;;;;;15.77;14.18;;;;;;;-144.30;72.10;84410.56;5110364;28;20741;-57
2023/06/22 01:14:37;;;;;;;16.13;14.40;;;;;;;-144.30;72.27;84426.47;5110590;28;20682;-58
2023/06/22 01:17:06;;;;;;;16.55;14.88;;;;;;;-144.30;72.61;84424.47;5110436;28;20730;-63
2023/06/22 01:19:42;;;;;;;18.80;14.50;;;;;;;-144.30;73.14;84398.63;5110670;27;20690;-57
2023/06/22 01:22:15;;;;;;;15.63;14.18;;;;;;;-144.30;73.44;84466.19;5108300;28;20218;-57
2023/06/22 01:24:54;;;;;;;17.23;15.45;;;;;;;-144.30;73.45;84444.34;5109744;28;20229;-63
2023/06/22 01:27:34;;;;;;;17.33;15.52;;;;;;;-144.30;73.20;84259.50;5109889;28;20190;-62
2023/06/22 01:30:05;;;;;;;17.20;15.30;;;;;;;-144.30;73.22;84426.47;5109865;28;20285;-63
2023/06/22 01:32:34;;;;;;;16.27;14.45;;;;;;;-144.30;72.31;84368.81;5110119;28;20191;-57
2023/06/22 01:35:04;;;;;;;15.93;14.48;;;;;;;-144.30;71.81;84438.38;5109682;28;20222;-58
2023/06/22 01:37:33;;;;;;;15.75;14.38;;;;;;;-144.30;72.08;84350.94;5109861;28;20201;-57
2023/06/22 01:40:01;;;;;;;15.95;14.50;;;;;;;-144.30;72.26;84494.03;5109470;28;20655;-63
2023/06/22 01:42:29;;;;;;;15.48;14.07;;;;;;;-144.30;72.24;84454.28;5110038;28;20706;-63
2023/06/22 01:44:57;;;;;;;15.95;14.38;;;;;;;-144.30;72.13;84454.28;5109811;28;20205;-63
2023/06/22 01:47:27;;;;;;;16.08;14.63;;;;;;;-144.30;72.41;84464.22;5107262;28;20186;-63
2023/06/22 01:49:54;;;;;;;15.60;14.15;;;;;;;-144.30;72.55;84380.75;5109592;28;20738;-63
2023/06/22 01:52:22;;;;;;;15.25;13.55;;;;;;;-144.30;73.47;84517.88;5109575;28;20190;-63
2023/06/22 01:54:49;;;;;;;15.68;14.18;;;;;;;-144.30;74.63;84537.75;5109710;28;20186;-63
2023/06/22 01:57:16;;;;;;;17.30;14.40;;;;;;;-144.30;75.09;84573.53;5109580;28;20207;-62
2023/06/22 01:59:49;;;;;;;16.10;14.70;;;;;;;-144.30;75.39;84561.59;5109299;28;20187;-57
2023/06/22 02:02:20;;;;;;;18.02;15.63;;;;;;;-144.30;75.86;84581.47;5109650;28;20776;-63
2023/06/22 02:04:56;;;;;;;16.02;14.40;;;;;;;-144.30;76.72;84577.50;5106891;28;20191;-63
2023/06/22 02:07:24;;;;;;;16.98;14.88;;;;;;;-144.30;77.43;84565.56;5109186;28;20190;-63
2023/06/22 02:09:55;;;;;;;15.95;14.35;;;;;;;-144.30;77.48;84605.31;5109289;28;20191;-62
2023/06/22 02:12:24;;;;;;;14.77;13.48;;;;;;;-144.30;74.84;84559.63;5109471;28;20675;-63
2023/06/22 02:14:52;;;;;;;14.60;13.23;;;;;;;-144.30;74.24;84539.75;5109156;28;20271;-57
2023/06/22 02:17:20;;;;;;;15.30;13.85;;;;;;;-144.30;74.17;84541.72;5109181;28;20263;-63
2023/06/22 02:19:47;;;;;;;14.27;13.00;;;;;;;-144.30;74.27;84565.56;5109165;28;20281;-63
2023/06/22 02:22:15;;;;;;;15.15;13.73;;;;;;;-144.30;74.96;84585.44;5109431;28;20608;-63
2023/06/22 02:24:42;;;;;;;15.30;13.75;;;;;;;-144.30;74.99;84553.66;5109127;28;20194;-63
2023/06/22 02:27:10;;;;;;;15.23;13.88;;;;;;;-144.30;75.28;84623.22;5109386;28;20194;-63
2023/06/22 02:29:37;;;;;;;16.08;14.57;;;;;;;-144.30;75.60;84595.38;5109182;28;20222;-63
2023/06/22 02:32:05;;;;;;;15.82;14.52;;;;;;;-144.30;75.92;84585.44;5106605;28;20198;-64
2023/06/22 02:34:33;;;;;;;14.85;13.55;;;;;;;-144.30;76.31;84589.41;5109165;28;20772;-63
2023/06/22 02:37:02;;;;;;;15.40;14.20;;;;;;;-144.30;76.69;84577.50;5108743;28;20195;-56
2023/06/22 02:39:30;;;;;;;16.25;14.73;;;;;;;-144.30;76.71;84617.25;5108871;28;20201;-57
2023/06/22 02:41:57;;;;;;;15.90;14.40;;;;;;;-144.30;76.84;84597.38;5108922;28;20186;-63
2023/06/22 02:44:24;;;;;;;15.82;14.35;;;;;;;-144.30;76.77;84613.28;5109041;28;20281;-63
2023/06/22 02:46:51;;;;;;;19.05;14.55;;;;;;;-144.30;77.26;84595.38;5109063;28;20191;-63
2023/06/22 02:49:18;;;;;;;17.80;14.23;;;;;;;-144.30;77.17;84623.22;5108958;28;20197;-64
2023/06/22 02:51:47;;;;;;;16.05;14.43;;;;;;;-144.30;77.39;84639.13;5106160;28;20208;-63
2023/06/22 02:54:14;;;;;;;17.08;15.57;;;;;;;-144.30;77.82;84657.00;5109020;28;20199;-63
2023/06/22 02:56:43;;;;;;;16.80;15.43;;;;;;;-144.30;78.33;84645.06;5109000;28;20557;-63
2023/06/22 02:59:10;;;;;;;16.80;15.32;;;;;;;-144.30;78.52;84649.03;5104976;28;20203;-62
2023/06/22 03:01:39;;;;;;;17.75;16.05;;;;;;;-144.30;78.16;84649.03;5107457;28;20198;-65
2023/06/22 03:04:07;;;;;;;17.23;15.57;;;;;;;-144.30;78.64;84653.03;5109369;28;20722;-66
2023/06/22 03:06:34;;;;;;;17.73;15.02;;;;;;;-144.30;78.81;84641.09;5109329;28;20194;-66
2023/06/22 03:09:03;;;;;;;15.98;14.43;;;;;;;-144.30;78.86;84686.81;5109130;28;20190;-66
2023/06/22 03:11:31;;;;;;;16.80;15.23;;;;;;;-144.30;78.59;84676.88;5108630;28;20232;-65
2023/06/22 03:13:59;;;;;;;16.35;14.63;;;;;;;-144.30;77.36;84686.81;5108213;28;20571;-66
2023/06/22 03:16:26;;;;;;;12.02;11.13;;;;;;;-144.30;76.13;84684.81;5107877;28;20210;-58
2023/06/22 03:18:54;;;;;;;14.20;13.00;;;;;;;-144.30;75.50;84672.91;5109562;28;20297;-66
2023/06/22 03:21:23;;;;;;;21.13;12.45;;;;;;;-144.30;75.23;84593.41;5113346;28;20267;-56
2023/06/22 03:23:50;;;;;;;12.65;11.55;;;;;;;-144.30;74.86;84653.03;5113130;28;20718;-56
2023/06/22 03:26:17;;;;;;;15.20;11.85;;;;;;;-144.30;74.99;84688.81;5113098;28;20201;-66
2023/06/22 03:28:44;;;;;;;12.52;11.52;;;;;;;-144.30;74.81;84637.13;5113180;28;20198;-65
2023/06/22 03:31:13;;;;;;;13.88;12.13;;;;;;;-144.30;74.11;84645.06;5113281;28;20201;-66
2023/06/22 03:33:40;;;;;;;14.40;13.07;;;;;;;-144.30;73.07;84649.03;5113343;28;20234;-55
2023/06/22 03:36:07;;;;;;;12.90;11.80;;;;;;;-144.30;71.77;84623.22;5112170;28;20220;-62
2023/06/22 03:38:34;;;;;;;11.90;10.73;;;;;;;-144.30;71.16;84583.47;5112630;28;20587;-60
2023/06/22 03:41:01;;;;;;;12.20;11.20;;;;;;;-144.30;69.99;84577.50;5112846;28;20667;-57
2023/06/22 03:43:27;;;;;;;12.38;11.10;;;;;;;-144.30;69.02;84869.66;5113284;28;20590;-57
2023/06/22 03:45:54;;;;;;;14.75;11.93;;;;;;;-144.30;68.23;84565.56;5112689;28;20203;-63
2023/06/22 03:48:23;;;;;;;12.27;11.05;;;;;;;-144.30;67.48;84523.84;5112681;28;20202;-64
2023/06/22 03:50:49;;;;;;;14.00;12.60;;;;;;;-144.30;66.97;84468.19;5112445;28;20321;-64
2023/06/22 03:53:16;;;;;;;14.90;12.27;;;;;;;-144.30;66.71;84446.31;5112633;28;20581;-63
2023/06/22 03:55:50;;;;;;;15.18;12.27;;;;;;;-144.30;62.78;84279.38;5112954;28;20201;-64
2023/06/22 03:58:18;;;;;;;14.05;12.07;;;;;;;-144.30;58.18;84096.56;5112466;28;20241;-63
2023/06/22 04:00:46;;;;;;;13.70;11.73;;;;;;;-144.30;53.63;83949.50;5108263;28;20203;-63
2023/06/22 04:03:13;;;;;;;15.43;12.10;;;;;;;-144.30;50.50;83796.50;5111771;28;20214;-58
2023/06/22 04:05:42;;;;;;;14.05;12.55;;;;;;;-144.30;48.47;83464.69;5111308;28;20208;-58
2023/06/22 04:08:09;;;;;;;12.80;11.68;;;;;;;-144.30;46.50;83536.22;5112308;28;20678;-59
2023/06/22 04:10:36;;;;;;;12.65;11.60;;;;;;;-144.30;44.62;83462.72;5111556;28;20194;-58
2023/06/22 04:13:03;;;;;;;12.85;11.57;;;;;;;-144.30;43.83;83395.16;5111787;28;20209;-64
2023/06/22 04:15:30;;;;;;;12.55;11.35;;;;;;;-144.30;42.66;83226.28;5110757;28;20194;-64
2023/06/22 04:17:57;;;;;;;12.60;11.38;;;;;;;-144.30;41.11;83162.72;5108455;28;20191;-58
2023/06/22 04:20:26;;;;;;;20.20;11.38;;;;;;;-144.30;39.80;82950.16;5110941;28;20205;-64
2023/06/22 04:22:55;;;;;;;16.38;11.00;;;;;;;-144.30;38.05;82848.84;5110047;28;20613;-64
2023/06/22 04:25:23;;;;;;;10.70;9.80;;;;;;;-144.30;37.06;82630.34;5108218;28;20213;-58
2023/06/22 04:27:50;;;;;;;11.40;10.40;;;;;;;-144.30;35.73;82395.94;5108754;28;20203;-58
2023/06/22 04:30:18;;;;;;;10.70;9.77;;;;;;;-144.30;34.88;82298.63;5109690;28;20232;-59
2023/06/22 04:32:45;;;;;;;11.40;10.40;;;;;;;-144.30;34.13;82173.50;5110096;28;20183;-57
2023/06/22 04:35:12;;;;;;;10.68;9.95;;;;;;;-144.30;33.57;82018.59;5109424;28;20244;-58
2023/06/22 04:37:39;;;;;;;12.40;11.40;;;;;;;-144.30;33.31;82048.38;5109411;28;20429;-62
2023/06/22 04:40:09;;;;;;;11.73;10.77;;;;;;;-144.30;33.33;81961.00;5111018;28;20206;-64
2023/06/22 04:42:36;;;;;;;11.18;10.30;;;;;;;-144.30;33.00;81943.13;5111332;28;20202;-63
2023/06/22 04:45:04;;;;;;;11.70;10.85;;;;;;;-144.30;32.42;81790.22;5111007;28;20659;-63
2023/06/22 04:47:31;;;;;;;12.18;11.13;;;;;;;-144.30;32.02;81768.38;5110848;28;20197;-63
2023/06/22 04:49:58;;;;;;;11.35;10.35;;;;;;;-144.30;31.57;81589.66;5111382;28;20682;-63
2023/06/22 04:52:25;;;;;;;11.10;10.20;;;;;;;-144.30;31.23;81472.47;5111727;28;20708;-64
2023/06/22 04:54:55;;;;;;;11.88;10.65;;;;;;;-144.30;31.20;81456.59;5111647;28;20190;-64
2023/06/22 04:57:30;;;;;;;10.43;9.65;;;;;;;-144.30;30.45;81363.28;5111827;28;20224;-64
2023/06/22 04:59:57;;;;;;;10.98;9.95;;;;;;;-144.30;30.77;81452.63;5110987;28;20585;-64
2023/06/22 05:02:32;;;;;;;11.52;10.30;;;;;;;-144.30;31.25;81504.25;5109442;28;20194;-64
2023/06/22 05:04:59;;;;;;;10.70;9.48;;;;;;;-144.30;30.83;81347.38;5110994;28;20198;-58
2023/06/22 05:07:26;;;;;;;11.45;10.55;;;;;;;-144.30;30.30;81200.47;5111703;28;20204;-58
2023/06/22 05:09:53;;;;;;;11.00;9.98;;;;;;;-144.30;29.85;81041.63;5111358;28;20736;-64
2023/06/22 05:12:20;;;;;;;11.35;10.18;;;;;;;-144.30;29.55;80986.03;5111267;28;20662;-58
2023/06/22 05:14:48;;;;;;;13.25;10.32;;;;;;;-144.30;29.41;80938.38;5111914;28;20587;-58
2023/06/22 05:17:18;;;;;;;11.75;10.82;;;;;;;-144.30;29.48;81009.84;5110729;28;20201;-58
2023/06/22 05:19:48;;;;;;;11.52;10.60;;;;;;;-144.30;29.68;81053.53;5111776;28;20194;-58
2023/06/22 05:22:16;;;;;;;11.27;10.02;;;;;;;-144.30;29.26;80767.63;5111699;28;20198;-59
2023/06/22 05:24:43;;;;;;;11.13;10.20;;;;;;;-144.30;29.42;80894.69;5111298;28;20228;-59
2023/06/22 05:27:11;;;;;;;10.25;9.43;;;;;;;-144.30;30.36;81111.13;5111462;28;20194;-57
2023/06/22 05:29:38;;;;;;;10.98;10.05;;;;;;;-144.30;29.96;81105.16;5111265;28;20194;-61
2023/06/22 05:32:08;;;;;;;10.75;9.75;;;;;;;-144.30;30.15;81087.28;5110981;28;20205;-62
2023/06/22 05:34:34;;;;;;;12.55;10.15;;;;;;;-144.30;29.92;81089.28;5106943;28;20252;-62
2023/06/22 05:37:01;;;;;;;10.38;9.52;;;;;;;-144.30;30.14;81093.25;5110770;28;20224;-63
2023/06/22 05:39:28;;;;;;;10.10;9.40;;;;;;;-144.30;30.04;81121.03;5110831;28;20230;-62
2023/06/22 05:41:55;;;;;;;15.93;9.48;;;;;;;-144.30;29.69;81005.88;5109776;28;20198;-59
2023/06/22 05:44:22;;;;;;;11.20;10.23;;;;;;;-144.30;29.80;81043.59;5110979;28;20769;-63
2023/06/22 05:46:49;;;;;;;10.40;9.60;;;;;;;-144.30;29.89;81081.34;5110855;28;20238;-61
2023/06/22 05:49:18;;;;;;;10.45;9.48;;;;;;;-144.30;29.54;81037.66;5110529;28;20202;-57
2023/06/22 05:51:45;;;;;;;10.35;9.48;;;;;;;-144.30;29.78;81101.19;5110668;28;20205;-65
2023/06/22 05:54:13;;;;;;;9.57;8.93;;;;;;;-144.30;29.72;81113.09;5110538;28;20198;-63
2023/06/22 05:56:40;;;;;;;11.65;10.68;;;;;;;-144.30;29.51;81009.84;5110406;28;20623;-65
2023/06/22 05:59:07;;;;;;;9.68;8.82;;;;;;;-144.30;29.17;80993.97;5109958;28;20298;-65
2023/06/22 06:01:35;;;;;;;9.70;8.98;;;;;;;-144.30;29.51;81017.78;5108979;28;20584;-64
2023/06/22 06:04:03;;;;;;;9.10;8.40;;;;;;;-144.30;28.92;80924.47;5111254;28;20220;-63
2023/06/22 06:06:32;;;;;;;9.98;9.10;;;;;;;-144.30;28.99;80938.38;5110549;28;20226;-64
2023/06/22 06:08:59;;;;;;;8.88;8.27;;;;;;;-144.30;28.78;80831.16;5110440;28;20194;-64
2023/06/22 06:11:26;;;;;;;8.70;8.30;;;;;;;-144.30;28.62;80960.22;5110786;28;20247;-63
2023/06/22 06:13:53;;;;;;;9.52;8.60;;;;;;;-144.30;28.76;81081.34;5110554;28;20190;-64
2023/06/22 06:16:20;;;;;;;9.20;8.55;;;;;;;-144.30;28.84;81168.69;5110663;28;20198;-64
2023/06/22 06:18:48;;;;;;;9.82;8.90;;;;;;;-144.30;29.77;81403.00;5110504;28;20202;-64
2023/06/22 06:21:15;;;;;;;9.45;8.85;;;;;;;-144.30;30.20;81500.28;5110097;28;20190;-64
2023/06/22 06:23:43;;;;;;;10.63;9.70;;;;;;;-144.30;29.97;81982.84;5110073;28;20206;-63
2023/06/22 06:26:10;;;;;;;9.85;9.05;;;;;;;-144.30;30.19;81468.50;5105176;28;20193;-63
2023/06/22 06:28:37;;;;;;;10.75;9.57;;;;;;;-144.30;29.87;81369.22;5106624;28;20202;-63
2023/06/22 06:31:08;;;;;;;10.50;9.23;;;;;;;-144.30;30.04;81365.25;5109957;28;20581;-62
2023/06/22 06:33:35;;;;;;;10.15;9.25;;;;;;;-144.30;30.06;81264.00;5109787;28;20226;-64
2023/06/22 06:36:03;;;;;;;10.50;9.57;;;;;;;-144.30;29.80;81260.03;5109765;28;20696;-64
2023/06/22 06:38:30;;;;;;;10.93;9.82;;;;;;;-144.30;30.01;81331.50;5110428;28;20194;-63
2023/06/22 06:40:59;;;;;;;11.32;10.43;;;;;;;-144.30;29.60;81267.97;5109187;28;20198;-64
2023/06/22 06:43:26;;;;;;;10.82;9.93;;;;;;;-144.30;30.40;81351.34;5109550;28;20217;-64
2023/06/22 06:45:53;;;;;;;10.10;9.30;;;;;;;-144.30;30.36;81319.59;5110289;28;20194;-63
2023/06/22 06:48:19;;;;;;;11.02;10.10;;;;;;;-144.30;30.09;81359.31;5109752;28;20213;-63
2023/06/22 06:50:47;;;;;;;10.02;9.05;;;;;;;-144.30;30.57;81399.00;5110110;28;20194;-61
2023/06/22 06:53:14;;;;;;;12.55;10.65;;;;;;;-144.30;30.72;81458.59;5110462;28;20289;-58
2023/06/22 06:55:41;;;;;;;10.85;9.80;;;;;;;-144.30;30.88;81524.13;5113937;28;20200;-58
2023/06/22 06:58:11;;;;;;;12.00;10.90;;;;;;;-144.30;31.19;81607.50;5113431;27;20202;-57
2023/06/22 07:00:38;;;;;;;11.65;10.63;;;;;;;-144.30;31.00;81543.97;5113798;28;20201;-58
2023/06/22 07:03:06;;;;;;;10.98;9.60;;;;;;;-144.30;30.77;81526.09;5113531;28;20202;-64
2023/06/22 07:05:33;;;;;;;11.43;10.38;;;;;;;-144.30;31.48;81585.66;5099921;28;20214;-64
2023/06/22 07:08:00;;;;;;;11.25;10.38;;;;;;;-144.30;30.74;81506.25;5113663;28;20666;-60
2023/06/22 07:10:27;;;;;;;10.15;9.45;;;;;;;-144.30;31.23;81486.38;5113601;28;20198;-63
2023/06/22 07:12:54;;;;;;;10.40;9.43;;;;;;;-144.30;30.84;81559.84;5113469;28;20566;-64
2023/06/22 07:15:23;;;;;;;10.60;9.80;;;;;;;-144.30;31.06;81526.09;5113490;27;20197;-62
2023/06/22 07:17:49;;;;;;;12.30;11.35;;;;;;;-144.30;30.49;81490.34;5113458;28;20212;-64
2023/06/22 07:20:16;;;;;;;10.77;9.77;;;;;;;-144.30;30.89;81545.97;5113315;28;20686;-64
2023/06/22 07:22:45;;;;;;;11.50;10.35;;;;;;;-144.30;31.13;81688.94;5113882;28;20194;-64
2023/06/22 07:25:14;;;;;;;12.02;11.23;;;;;;;-144.30;31.53;81776.31;5112836;28;20286;-65
2023/06/22 07:27:44;;;;;;;14.65;13.35;;;;;;;-144.30;31.69;81889.50;5113063;28;20183;-64
2023/06/22 07:30:12;;;;;;;13.35;12.00;;;;;;;-144.30;31.69;81955.03;5113134;27;20332;-65
2023/06/22 07:32:41;;;;;;;10.80;9.93;;;;;;;-144.30;32.12;81907.38;5113147;28;20205;-65
2023/06/22 07:35:09;;;;;;;12.32;11.38;;;;;;;-144.30;31.93;81945.09;5112330;28;20225;-61
2023/06/22 07:37:36;;;;;;;12.52;11.32;;;;;;;-144.30;31.94;81887.53;5112833;28;20199;-64
2023/06/22 07:40:06;;;;;;;11.80;10.63;;;;;;;-144.30;31.86;81835.88;5112861;28;20191;-65
2023/06/22 07:42:33;;;;;;;13.65;12.23;;;;;;;-144.30;31.73;81784.25;5113562;28;20625;-65
2023/06/22 07:45:01;;;;;;;11.30;10.32;;;;;;;-144.30;31.52;81661.13;5113429;28;20734;-65
2023/06/22 07:47:28;;;;;;;11.77;10.82;;;;;;;-144.30;30.46;81474.47;5113685;28;20212;-61
2023/06/22 07:49:57;;;;;;;14.05;10.65;;;;;;;-144.30;30.16;81416.88;5113909;28;20193;-65
2023/06/22 07:52:25;;;;;;;11.98;10.98;;;;;;;-144.30;29.80;81311.66;5113387;28;20198;-65
2023/06/22 07:54:53;;;;;;;11.07;10.13;;;;;;;-144.30;30.11;81234.22;5110006;28;20589;-61
2023/06/22 07:57:19;;;;;;;9.68;9.10;;;;;;;-144.30;29.49;81242.16;5113610;28;20320;-62
2023/06/22 07:59:46;;;;;;;10.43;9.55;;;;;;;-144.30;29.58;81204.44;5113190;28;20204;-61
2023/06/22 08:02:13;;;;;;;15.32;9.63;;;;;;;-144.30;29.40;81222.28;5112787;28;20191;-64
2023/06/22 08:04:40;;;;;;;10.98;10.10;;;;;;;-144.30;28.91;81111.13;5111924;28;20210;-61
2023/06/22 08:07:09;;;;;;;11.57;9.57;;;;;;;-144.30;28.08;81013.81;5112291;28;20194;-65
2023/06/22 08:09:36;;;;;;;13.23;11.18;;;;;;;-144.30;28.10;80874.84;5113018;28;20194;-61
2023/06/22 08:12:04;;;;;;;18.13;15.35;;;;;;;-144.30;27.96;80773.59;5110141;28;20217;-64
2023/06/22 08:14:31;;;;;;;10.15;9.25;;;;;;;-144.30;27.81;80759.69;5113127;28;20227;-65
2023/06/22 08:16:58;;;;;;;14.18;12.85;;;;;;;-144.30;27.63;80690.22;5112692;28;20281;-65
2023/06/22 08:19:25;;;;;;;11.50;9.38;;;;;;;-144.30;27.60;80668.38;5112801;28;20194;-62
2023/06/22 08:21:52;;;;;;;10.75;9.95;;;;;;;-144.30;27.42;80581.03;5112474;28;20190;-62
2023/06/22 08:24:20;;;;;;;12.73;9.90;;;;;;;-144.30;27.25;80440.09;5112432;28;20218;-61
2023/06/22 08:26:47;;;;;;;9.43;8.60;;;;;;;-144.30;27.16;80350.75;5112802;28;20186;-61
2023/06/22 08:29:14;;;;;;;10.18;8.20;;;;;;;-144.30;26.89;80332.91;5112393;28;20198;-61
2023/06/22 08:31:41;;;;;;;11.63;8.75;;;;;;;-144.30;26.66;80436.13;5112526;28;20190;-62
2023/06/22 08:34:08;;;;;;;9.48;8.77;;;;;;;-144.30;27.04;80412.28;5111978;28;20309;-61
2023/06/22 08:36:41;;;;;;;9.23;8.27;;;;;;;-144.30;26.30;80402.38;5112479;28;20508;-60
2023/06/22 08:39:08;;;;;;;8.43;7.78;;;;;;;-144.30;26.46;80434.13;5112249;28;20558;-61
2023/06/22 08:41:36;;;;;;;9.60;8.68;;;;;;;-144.30;26.78;80489.72;5112325;28;20236;-61
2023/06/22 08:44:03;;;;;;;8.98;8.45;;;;;;;-144.30;26.77;80702.13;5111963;28;22067;-60
2023/06/22 08:46:33;;;;;;;8.15;7.40;;;;;;;-144.30;26.65;80759.69;5111756;28;20202;-61
2023/06/22 08:49:00;;;;;;;8.48;7.75;;;;;;;-144.30;27.16;81033.69;5111123;28;20662;-60
2023/06/22 08:51:28;;;;;;;8.68;8.18;;;;;;;-144.30;27.57;81132.94;5111543;28;20190;-63
2023/06/22 08:53:55;;;;;;;12.45;9.70;;;;;;;-144.30;27.88;81113.09;5110363;28;20198;-64
2023/06/22 08:56:22;;;;;;;9.48;8.63;;;;;;;-144.30;27.86;81140.91;5110358;28;20585;-62
2023/06/22 08:58:50;;;;;;;9.70;8.98;;;;;;;-144.30;28.17;81250.09;5111138;28;20194;-61
2023/06/22 09:01:17;;;;;;;9.43;8.63;;;;;;;-144.30;28.15;81178.63;5111161;28;20194;-64
2023/06/22 09:03:44;;;;;;;9.02;8.25;;;;;;;-144.30;27.89;81170.69;5110984;28;20193;-61
2023/06/22 09:06:12;;;;;;;9.15;8.30;;;;;;;-144.30;27.33;81152.81;5110850;28;20222;-64
2023/06/22 09:08:39;;;;;;;8.90;8.20;;;;;;;-144.30;27.50;81315.63;5111150;28;20205;-62
2023/06/22 09:11:05;;;;;;;7.60;7.00;;;;;;;-144.30;27.62;81271.94;5111013;28;20190;-61
2023/06/22 09:13:34;;;;;;;8.95;8.20;;;;;;;-144.30;27.83;81285.84;5111024;28;20198;-62
2023/06/22 09:16:03;;;;;;;9.38;8.60;;;;;;;-144.30;27.72;81303.72;5110486;28;20194;-60
2023/06/22 09:18:29;;;;;;;8.88;8.07;;;;;;;-144.30;28.37;81273.91;5110150;28;20198;-61
2023/06/22 09:20:57;;;;;;;8.82;8.18;;;;;;;-144.30;27.68;81222.28;5110783;28;20285;-62
2023/06/22 09:23:24;;;;;;;8.20;7.63;;;;;;;-144.30;27.23;81236.19;5111018;28;20222;-64
2023/06/22 09:25:51;;;;;;;8.77;8.07;;;;;;;-144.30;27.01;81258.03;5110640;28;20309;-63
2023/06/22 09:28:18;;;;;;;8.25;7.60;;;;;;;-144.30;27.43;81248.13;5110641;28;20281;-63
2023/06/22 09:30:45;;;;;;;8.65;8.02;;;;;;;-144.30;27.26;81228.25;5110933;28;20594;-63
2023/06/22 09:33:13;;;;;;;9.30;8.60;;;;;;;-144.30;27.45;81232.22;5110227;28;20201;-64
2023/06/22 09:35:40;;;;;;;8.05;7.65;;;;;;;-144.30;27.96;81254.06;5110636;28;20194;-64
2023/06/22 09:38:07;;;;;;;11.30;8.55;;;;;;;-144.30;28.17;81414.91;5109246;28;20696;-61
2023/06/22 09:40:39;;;;;;;9.43;8.52;;;;;;;-144.30;28.10;81410.94;5102896;28;20667;-64
2023/06/22 09:43:06;;;;;;;10.10;8.40;;;;;;;-144.30;27.78;81446.66;5089770;28;20597;-64
2023/06/22 09:45:33;;;;;;;9.15;7.13;;;;;;;-144.30;27.47;81496.31;5090277;28;20247;-64
2023/06/22 09:48:00;;;;;;;9.07;8.43;;;;;;;-144.30;27.31;81617.44;5089652;28;20193;-62
2023/06/22 09:50:28;;;;;;;9.40;8.80;;;;;;;-144.30;27.62;81547.94;5089832;28;20293;-62
2023/06/22 09:52:55;;;;;;;8.50;7.75;;;;;;;-144.30;27.50;81486.38;5089717;28;20195;-61
2023/06/22 09:55:22;;;;;;;10.60;9.60;;;;;;;-144.30;27.83;81504.25;5089832;28;20205;-64
2023/06/22 09:57:49;;;;;;;8.98;8.48;;;;;;;-144.30;27.64;81494.31;5089784;28;20201;-63
2023/06/22 10:00:18;;;;;;;9.38;8.48;;;;;;;-144.30;27.28;81470.50;5090077;28;20230;-64
2023/06/22 10:02:46;;;;;;;8.05;7.45;;;;;;;-144.30;27.38;81494.31;5089681;28;20198;-61
2023/06/22 10:05:13;;;;;;;7.82;7.20;;;;;;;-144.30;26.67;81494.31;5089357;28;20307;-61
2023/06/22 10:07:43;;;;;;;8.30;7.47;;;;;;;-144.30;27.25;81577.72;5087335;28;20292;-61
2023/06/22 10:10:10;;;;;;;8.20;7.70;;;;;;;-144.30;27.03;81516.16;5093455;28;20563;-64
2023/06/22 10:12:37;;;;;;;8.23;7.63;;;;;;;-144.30;26.59;81484.41;5109633;28;20208;-62
2023/06/22 10:15:04;;;;;;;7.65;7.20;;;;;;;-144.30;27.08;81653.19;5109866;28;20696;-62
2023/06/22 10:17:31;;;;;;;8.13;7.35;;;;;;;-144.30;27.22;81698.84;5109511;28;20201;-63
2023/06/22 10:19:58;;;;;;;8.80;8.00;;;;;;;-144.30;27.59;81756.44;5109495;28;20220;-60
2023/06/22 10:22:25;;;;;;;8.02;7.53;;;;;;;-144.30;27.89;81823.97;5108406;28;20195;-64
2023/06/22 10:24:53;;;;;;;8.32;7.72;;;;;;;-144.30;28.24;81833.91;5109567;28;20210;-63
2023/06/22 10:27:20;;;;;;;8.77;8.13;;;;;;;-144.30;28.15;81885.53;5109777;28;20197;-63
2023/06/22 10:29:47;;;;;;;8.50;8.00;;;;;;;-144.30;27.70;81935.19;5109520;28;20593;-64
2023/06/22 10:32:14;;;;;;;9.70;9.13;;;;;;;-144.30;28.26;81911.34;5109535;28;20217;-63
2023/06/22 10:34:41;;;;;;;21.70;19.08;;;;;;;-144.30;28.43;81935.19;5109339;28;20226;-60
2023/06/22 10:37:08;;;;;;;8.30;7.60;;;;;;;-144.30;27.96;82006.69;5108002;28;20507;-61
2023/06/22 10:39:35;;;;;;;9.50;8.90;;;;;;;-144.30;28.50;81980.84;5108228;28;20199;-60
2023/06/22 10:42:03;;;;;;;9.55;8.68;;;;;;;-144.30;28.69;82014.63;5109512;28;20198;-60
2023/06/22 10:44:30;;;;;;;9.18;8.45;;;;;;;-144.30;28.57;82024.56;5109460;28;20203;-64
2023/06/22 10:46:57;;;;;;;8.70;8.20;;;;;;;-144.30;28.99;81951.06;5109420;28;20201;-64
2023/06/22 10:49:24;;;;;;;9.38;8.77;;;;;;;-144.30;28.61;81968.94;5109515;28;20198;-64
2023/06/22 10:51:51;;;;;;;9.35;8.80;;;;;;;-144.30;28.78;81937.16;5109361;28;20275;-60
2023/06/22 10:54:19;;;;;;;9.05;8.32;;;;;;;-144.30;28.46;81939.16;5109343;28;20191;-60
2023/06/22 10:56:46;;;;;;;13.80;12.75;;;;;;;-144.30;28.69;81980.84;5109364;28;20190;-64
2023/06/22 10:59:14;;;;;;;9.38;8.70;;;;;;;-144.30;28.84;81941.13;5108942;28;20206;-64
2023/06/22 11:01:41;;;;;;;9.10;8.40;;;;;;;-144.30;28.58;81953.06;5106721;28;20199;-64
2023/06/22 11:04:08;;;;;;;8.63;8.02;;;;;;;-144.30;28.34;81968.94;5108875;28;20195;-61
2023/06/22 11:06:35;;;;;;;7.75;7.35;;;;;;;-144.30;27.99;82598.56;5109114;28;20221;-63
2023/06/22 11:09:03;;;;;;;8.60;8.00;;;;;;;-144.30;28.00;82044.41;5108649;28;20205;-66